Wardeh — ODUS — position and weather

sailwx.info

Track history (hours):
 
Tides and Currents Weather Stations Pressure Air Temp Water Temp Dewpoint Dewpoint Depression Visibility Wind Speed Wind Dir Waves Ship Positions

Wardeh

Last reported at 2016-Nov-23 22:30 UTC. Time now 2016-Dec-09 21:19 UTC.
Position S 23°07' W 043°13'.
Warning: this ship's position is 15 days out of date.

; draft 6.3 m.

Type: Cargo ship. MMSI: 450522000.

Date/timePositionNaut miles runAvg speedWind from/ knotsBaromVisibWave heightAir tempDewpointWater temp
2016-Nov-23 22:30S 23°07' W 043°13'1212.6
2016-Nov-23 21:31S 22°56' W 043°08'3 1.4
2016-Nov-23 19:22S 22°53' W 043°09'0 0.0
2016-Nov-23 17:22S 22°53' W 043°09'0 0.0
2016-Nov-23 14:22S 22°53' W 043°09'0 0.0
2016-Nov-23 13:28S 22°53' W 043°09'0 0.0
2016-Nov-23 12:28S 22°53' W 043°09'0 0.0
2016-Nov-23 07:10S 22°53' W 043°09'0 0.0
2016-Nov-23 06:10S 22°53' W 043°09'0 0.0
2016-Nov-23 03:28S 22°53' W 043°09'0 0.0
2016-Nov-23 02:28S 22°53' W 043°09'0 0.0
2016-Nov-23 00:28S 22°53' W 043°09'0 0.0
2016-Nov-22 23:28S 22°53' W 043°09'0 0.0
2016-Nov-22 22:28S 22°53' W 043°09'0 0.0
2016-Nov-22 20:28S 22°53' W 043°09'0 0.0
2016-Nov-22 19:28S 22°53' W 043°09'0 0.0
2016-Nov-22 17:28S 22°53' W 043°09'0 0.0
2016-Nov-22 16:10S 22°53' W 043°09'0 0.1
2016-Nov-22 15:28S 22°53' W 043°09'0 0.0
2016-Nov-22 14:28S 22°53' W 043°09'0 0.2
2016-Nov-22 13:28S 22°53' W 043°09'3 1.0
2016-Nov-22 10:33S 22°56' W 043°09'8 8.1
2016-Nov-22 09:33S 23°02' W 043°03'6 5.8
2016-Nov-22 08:31S 23°06' W 042°58'0 0.0
2016-Nov-22 07:31S 23°06' W 042°58'0 0.0
2016-Nov-22 05:31S 23°06' W 042°58'0 0.0
2016-Nov-22 04:31S 23°06' W 042°58'0 0.0
2016-Nov-22 03:31S 23°06' W 042°58'0 0.0
2016-Nov-22 02:25S 23°06' W 042°58'3 1.2
2016-Nov-21 23:33S 23°05' W 042°55'  
Track history (hours):
 
Tides and Currents Weather Stations Pressure Air Temp Water Temp Dewpoint Dewpoint Depression Visibility Wind Speed Wind Dir Waves Ship Positions

Wardeh

Last reported at 2016-Nov-23 22:30 UTC. Time now 2016-Dec-09 21:19 UTC.
Position S 23°07' W 043°13'.
Warning: this ship's position is 15 days out of date.

; draft 6.3 m.

Type: Cargo ship. MMSI: 450522000.

Date/timePositionNaut miles runAvg speedWind from/ knotsBaromVisibWave heightAir tempDewpointWater temp
2016-Nov-23 22:30S 23°07' W 043°13'1212.6
2016-Nov-23 21:31S 22°56' W 043°08'3 1.4
2016-Nov-23 19:22S 22°53' W 043°09'0 0.0
2016-Nov-23 17:22S 22°53' W 043°09'0 0.0
2016-Nov-23 14:22S 22°53' W 043°09'0 0.0
2016-Nov-23 13:28S 22°53' W 043°09'0 0.0
2016-Nov-23 12:28S 22°53' W 043°09'0 0.0
2016-Nov-23 07:10S 22°53' W 043°09'0 0.0
2016-Nov-23 06:10S 22°53' W 043°09'0 0.0
2016-Nov-23 03:28S 22°53' W 043°09'0 0.0
2016-Nov-23 02:28S 22°53' W 043°09'0 0.0
2016-Nov-23 00:28S 22°53' W 043°09'0 0.0
2016-Nov-22 23:28S 22°53' W 043°09'0 0.0
2016-Nov-22 22:28S 22°53' W 043°09'0 0.0
2016-Nov-22 20:28S 22°53' W 043°09'0 0.0
2016-Nov-22 19:28S 22°53' W 043°09'0 0.0
2016-Nov-22 17:28S 22°53' W 043°09'0 0.0
2016-Nov-22 16:10S 22°53' W 043°09'0 0.1
2016-Nov-22 15:28S 22°53' W 043°09'0 0.0
2016-Nov-22 14:28S 22°53' W 043°09'0 0.2
2016-Nov-22 13:28S 22°53' W 043°09'3 1.0
2016-Nov-22 10:33S 22°56' W 043°09'8 8.1
2016-Nov-22 09:33S 23°02' W 043°03'6 5.8
2016-Nov-22 08:31S 23°06' W 042°58'0 0.0
2016-Nov-22 07:31S 23°06' W 042°58'0 0.0
2016-Nov-22 05:31S 23°06' W 042°58'0 0.0
2016-Nov-22 04:31S 23°06' W 042°58'0 0.0
2016-Nov-22 03:31S 23°06' W 042°58'0 0.0
2016-Nov-22 02:25S 23°06' W 042°58'3 1.2
2016-Nov-21 23:33S 23°05' W 042°55'  

Dump ship's entire track history